sensor_id;sensor_type;location;lat;lon;timestamp;pressure;altitude;pressure_sealevel;temperature;humidity
79250;BME280;68679;51.030;7.584;2024-01-07T00:01:20;98693.34;;;3.37;75.67
79250;BME280;68679;51.030;7.584;2024-01-07T00:03:46;98688.06;;;3.32;75.72
79250;BME280;68679;51.030;7.584;2024-01-07T00:06:11;98688.84;;;3.32;76.19
79250;BME280;68679;51.030;7.584;2024-01-07T00:08:37;98698.75;;;3.35;75.81
79250;BME280;68679;51.030;7.584;2024-01-07T00:11:02;98696.94;;;3.36;75.96
79250;BME280;68679;51.030;7.584;2024-01-07T00:13:27;98699.78;;;3.34;76.19
79250;BME280;68679;51.030;7.584;2024-01-07T00:15:52;98694.81;;;3.33;75.77
79250;BME280;68679;51.030;7.584;2024-01-07T00:18:20;98701.25;;;3.30;75.69
79250;BME280;68679;51.030;7.584;2024-01-07T00:20:45;98699.44;;;3.31;76.19
79250;BME280;68679;51.030;7.584;2024-01-07T00:23:10;98706.97;;;3.32;75.90
79250;BME280;68679;51.030;7.584;2024-01-07T00:25:36;98709.81;;;3.31;75.96
79250;BME280;68679;51.030;7.584;2024-01-07T00:28:01;98715.22;;;3.29;76.33
79250;BME280;68679;51.030;7.584;2024-01-07T00:30:26;98716.00;;;3.30;75.89
79250;BME280;68679;51.030;7.584;2024-01-07T00:32:52;98712.94;;;3.33;76.53
79250;BME280;68679;51.030;7.584;2024-01-07T00:35:17;98716.13;;;3.35;75.77
79250;BME280;68679;51.030;7.584;2024-01-07T00:37:42;98724.81;;;3.29;76.10
79250;BME280;68679;51.030;7.584;2024-01-07T00:40:08;98724.56;;;3.30;75.90
79250;BME280;68679;51.030;7.584;2024-01-07T00:42:33;98720.72;;;3.33;76.15
79250;BME280;68679;51.030;7.584;2024-01-07T00:44:59;98713.41;;;3.30;76.09
79250;BME280;68679;51.030;7.584;2024-01-07T00:47:24;98721.09;;;3.25;76.18
79250;BME280;68679;51.030;7.584;2024-01-07T00:49:49;98723.56;;;3.31;76.39
79250;BME280;68679;51.030;7.584;2024-01-07T00:52:15;98715.78;;;3.31;76.02
79250;BME280;68679;51.030;7.584;2024-01-07T00:54:40;98721.66;;;3.27;75.87
79250;BME280;68679;51.030;7.584;2024-01-07T00:57:05;98722.56;;;3.20;76.06
79250;BME280;68679;51.030;7.584;2024-01-07T00:59:31;98731.13;;;3.21;76.14
79250;BME280;68679;51.030;7.584;2024-01-07T01:01:56;98735.38;;;3.27;76.29
79250;BME280;68679;51.030;7.584;2024-01-07T01:04:22;98741.38;;;3.28;76.50
79250;BME280;68679;51.030;7.584;2024-01-07T01:06:47;98736.41;;;3.26;76.19
79250;BME280;68679;51.030;7.584;2024-01-07T01:09:12;98741.03;;;3.24;76.10
79250;BME280;68679;51.030;7.584;2024-01-07T01:11:38;98742.84;;;3.23;76.22
79250;BME280;68679;51.030;7.584;2024-01-07T01:14:03;98742.06;;;3.23;76.17
79250;BME280;68679;51.030;7.584;2024-01-07T01:16:28;98745.44;;;3.23;76.37
79250;BME280;68679;51.030;7.584;2024-01-07T01:18:54;98746.13;;;3.19;76.06
79250;BME280;68679;51.030;7.584;2024-01-07T01:21:19;98747.13;;;3.18;75.87
79250;BME280;68679;51.030;7.584;2024-01-07T01:23:46;98748.72;;;3.19;76.38
79250;BME280;68679;51.030;7.584;2024-01-07T01:26:12;98751.84;;;3.21;76.27
79250;BME280;68679;51.030;7.584;2024-01-07T01:28:37;98753.34;;;3.17;76.13
79250;BME280;68679;51.030;7.584;2024-01-07T01:31:02;98757.25;;;3.19;76.41
79250;BME280;68679;51.030;7.584;2024-01-07T01:33:28;98760.78;;;3.13;76.39
79250;BME280;68679;51.030;7.584;2024-01-07T01:35:53;98755.81;;;3.12;76.24
79250;BME280;68679;51.030;7.584;2024-01-07T01:38:18;98764.72;;;3.16;76.69
79250;BME280;68679;51.030;7.584;2024-01-07T01:40:43;98768.66;;;3.18;76.30
79250;BME280;68679;51.030;7.584;2024-01-07T01:43:08;98766.59;;;3.20;76.51
79250;BME280;68679;51.030;7.584;2024-01-07T01:45:34;98765.16;;;3.13;76.34
79250;BME280;68679;51.030;7.584;2024-01-07T01:47:59;98779.94;;;3.12;76.23
79250;BME280;68679;51.030;7.584;2024-01-07T01:50:25;98771.13;;;3.13;76.30
79250;BME280;68679;51.030;7.584;2024-01-07T01:52:51;98774.75;;;3.12;76.54
79250;BME280;68679;51.030;7.584;2024-01-07T01:55:17;98775.09;;;3.16;76.65
79250;BME280;68679;51.030;7.584;2024-01-07T01:57:43;98776.84;;;3.15;76.27
79250;BME280;68679;51.030;7.584;2024-01-07T02:00:11;98777.88;;;3.14;76.61
79250;BME280;68679;51.030;7.584;2024-01-07T02:02:37;98778.13;;;3.13;76.50
79250;BME280;68679;51.030;7.584;2024-01-07T02:05:03;98783.31;;;3.13;76.34
79250;BME280;68679;51.030;7.584;2024-01-07T02:07:29;98784.19;;;3.18;76.48
79250;BME280;68679;51.030;7.584;2024-01-07T02:09:55;98785.53;;;3.21;76.88
79250;BME280;68679;51.030;7.584;2024-01-07T02:12:20;98788.13;;;3.21;76.46
79250;BME280;68679;51.030;7.584;2024-01-07T02:14:45;98781.06;;;3.16;76.17
79250;BME280;68679;51.030;7.584;2024-01-07T02:17:11;98785.34;;;3.11;75.99
79250;BME280;68679;51.030;7.584;2024-01-07T02:19:36;98784.75;;;3.09;76.12
79250;BME280;68679;51.030;7.584;2024-01-07T02:22:01;98781.63;;;3.07;76.26
79250;BME280;68679;51.030;7.584;2024-01-07T02:24:27;98791.19;;;3.06;76.27
79250;BME280;68679;51.030;7.584;2024-01-07T02:26:52;98786.47;;;3.03;76.17
79250;BME280;68679;51.030;7.584;2024-01-07T02:29:17;98794.81;;;3.05;76.32
79250;BME280;68679;51.030;7.584;2024-01-07T02:31:42;98793.44;;;3.03;76.13
79250;BME280;68679;51.030;7.584;2024-01-07T02:34:11;98788.84;;;3.05;76.02
79250;BME280;68679;51.030;7.584;2024-01-07T02:36:36;98792.75;;;3.07;76.31
79250;BME280;68679;51.030;7.584;2024-01-07T02:39:01;98789.94;;;3.09;76.12
79250;BME280;68679;51.030;7.584;2024-01-07T02:41:27;98792.53;;;3.09;76.34
79250;BME280;68679;51.030;7.584;2024-01-07T02:43:52;98795.03;;;3.04;76.11
79250;BME280;68679;51.030;7.584;2024-01-07T02:46:18;98789.03;;;3.03;76.54
79250;BME280;68679;51.030;7.584;2024-01-07T02:48:44;98791.19;;;3.06;76.40
79250;BME280;68679;51.030;7.584;2024-01-07T02:51:09;98790.72;;;3.09;76.01
79250;BME280;68679;51.030;7.584;2024-01-07T02:53:34;98789.94;;;3.09;75.93
79250;BME280;68679;51.030;7.584;2024-01-07T02:56:00;98791.75;;;3.08;76.32
79250;BME280;68679;51.030;7.584;2024-01-07T02:58:25;98793.56;;;3.08;76.42
79250;BME280;68679;51.030;7.584;2024-01-07T03:00:50;98792.53;;;3.09;76.22
79250;BME280;68679;51.030;7.584;2024-01-07T03:03:16;98800.09;;;3.10;76.43
79250;BME280;68679;51.030;7.584;2024-01-07T03:05:41;98801.91;;;3.10;76.63
79250;BME280;68679;51.030;7.584;2024-01-07T03:08:06;98800.88;;;3.11;76.17
79250;BME280;68679;51.030;7.584;2024-01-07T03:10:32;98814.28;;;3.08;76.08
79250;BME280;68679;51.030;7.584;2024-01-07T03:12:57;98813.50;;;3.07;76.09
79250;BME280;68679;51.030;7.584;2024-01-07T03:15:23;98815.28;;;3.07;76.32
79250;BME280;68679;51.030;7.584;2024-01-07T03:17:48;98823.06;;;3.07;76.51
79250;BME280;68679;51.030;7.584;2024-01-07T03:20:13;98821.25;;;3.07;76.37
79250;BME280;68679;51.030;7.584;2024-01-07T03:22:38;98824.41;;;3.09;76.23
79250;BME280;68679;51.030;7.584;2024-01-07T03:25:10;98823.59;;;3.09;76.38
79250;BME280;68679;51.030;7.584;2024-01-07T03:27:35;98833.41;;;3.07;76.07
79250;BME280;68679;51.030;7.584;2024-01-07T03:30:00;98828.00;;;3.08;76.28
79250;BME280;68679;51.030;7.584;2024-01-07T03:32:26;98833.66;;;3.05;76.03
79250;BME280;68679;51.030;7.584;2024-01-07T03:34:51;98832.22;;;2.98;75.88
79250;BME280;68679;51.030;7.584;2024-01-07T03:37:16;98838.97;;;2.99;76.34
79250;BME280;68679;51.030;7.584;2024-01-07T03:39:42;98828.13;;;3.02;76.20
79250;BME280;68679;51.030;7.584;2024-01-07T03:42:07;98833.53;;;3.00;75.78
79250;BME280;68679;51.030;7.584;2024-01-07T03:44:39;98832.63;;;2.94;76.17
79250;BME280;68679;51.030;7.584;2024-01-07T03:47:08;98834.31;;;3.01;76.49
79250;BME280;68679;51.030;7.584;2024-01-07T03:49:33;98846.25;;;3.02;76.18
79250;BME280;68679;51.030;7.584;2024-01-07T03:52:01;98842.31;;;2.99;76.61
79250;BME280;68679;51.030;7.584;2024-01-07T03:54:26;98848.84;;;3.02;76.24
79250;BME280;68679;51.030;7.584;2024-01-07T03:56:51;98844.69;;;3.01;76.08
79250;BME280;68679;51.030;7.584;2024-01-07T03:59:16;98844.56;;;2.95;76.39
79250;BME280;68679;51.030;7.584;2024-01-07T04:01:42;98841.97;;;2.95;76.49
79250;BME280;68679;51.030;7.584;2024-01-07T04:04:07;98847.03;;;2.90;76.26
79250;BME280;68679;51.030;7.584;2024-01-07T04:06:32;98852.81;;;2.92;76.60
79250;BME280;68679;51.030;7.584;2024-01-07T04:08:57;98849.63;;;2.90;76.37
79250;BME280;68679;51.030;7.584;2024-01-07T04:11:23;98855.28;;;2.87;75.70
79250;BME280;68679;51.030;7.584;2024-01-07T04:13:48;98850.88;;;2.88;76.10
79250;BME280;68679;51.030;7.584;2024-01-07T04:16:20;98856.28;;;2.86;76.21
79250;BME280;68679;51.030;7.584;2024-01-07T04:18:46;98855.94;;;2.83;76.23
79250;BME280;68679;51.030;7.584;2024-01-07T04:21:11;98862.81;;;2.89;76.75
79250;BME280;68679;51.030;7.584;2024-01-07T04:23:38;98860.78;;;2.91;76.29
79250;BME280;68679;51.030;7.584;2024-01-07T04:26:04;98861.25;;;2.88;76.10
79250;BME280;68679;51.030;7.584;2024-01-07T04:28:29;98856.50;;;2.85;76.54
79250;BME280;68679;51.030;7.584;2024-01-07T04:30:54;98866.66;;;2.86;76.41
79250;BME280;68679;51.030;7.584;2024-01-07T04:33:19;98861.47;;;2.86;76.27
79250;BME280;68679;51.030;7.584;2024-01-07T04:35:45;98863.28;;;2.86;76.54
79250;BME280;68679;51.030;7.584;2024-01-07T04:38:10;98868.22;;;2.87;76.28
79250;BME280;68679;51.030;7.584;2024-01-07T04:40:35;98871.94;;;2.91;76.61
79250;BME280;68679;51.030;7.584;2024-01-07T04:43:00;98868.34;;;2.92;76.22
79250;BME280;68679;51.030;7.584;2024-01-07T04:45:26;98863.84;;;2.88;76.60
79250;BME280;68679;51.030;7.584;2024-01-07T04:47:51;98873.84;;;2.84;76.06
79250;BME280;68679;51.030;7.584;2024-01-07T04:50:16;98869.34;;;2.80;76.34
79250;BME280;68679;51.030;7.584;2024-01-07T04:52:45;98877.91;;;2.80;76.80
79250;BME280;68679;51.030;7.584;2024-01-07T04:55:11;98877.91;;;2.80;75.84
79250;BME280;68679;51.030;7.584;2024-01-07T04:57:36;98885.31;;;2.77;76.17
79250;BME280;68679;51.030;7.584;2024-01-07T05:00:02;98875.44;;;2.74;76.11
79250;BME280;68679;51.030;7.584;2024-01-07T05:02:28;98881.50;;;2.67;75.96
79250;BME280;68679;51.030;7.584;2024-01-07T05:04:54;98885.41;;;2.70;76.27
79250;BME280;68679;51.030;7.584;2024-01-07T05:07:19;98887.00;;;2.71;76.45
79250;BME280;68679;51.030;7.584;2024-01-07T05:09:44;98894.34;;;2.74;76.07
79250;BME280;68679;51.030;7.584;2024-01-07T05:12:09;98894.09;;;2.76;76.08
79250;BME280;68679;51.030;7.584;2024-01-07T05:14:35;98891.38;;;2.71;75.86
79250;BME280;68679;51.030;7.584;2024-01-07T05:17:02;98899.38;;;2.69;76.61
79250;BME280;68679;51.030;7.584;2024-01-07T05:19:27;98895.00;;;2.69;76.15
79250;BME280;68679;51.030;7.584;2024-01-07T05:21:53;98901.19;;;2.68;76.18
79250;BME280;68679;51.030;7.584;2024-01-07T05:24:18;98900.28;;;2.63;76.06
79250;BME280;68679;51.030;7.584;2024-01-07T05:26:44;98906.00;;;2.65;75.91
79250;BME280;68679;51.030;7.584;2024-01-07T05:29:10;98906.59;;;2.67;76.26
79250;BME280;68679;51.030;7.584;2024-01-07T05:31:36;98910.16;;;2.66;76.15
79250;BME280;68679;51.030;7.584;2024-01-07T05:34:02;98917.59;;;2.62;76.22
79250;BME280;68679;51.030;7.584;2024-01-07T05:36:27;98919.19;;;2.63;76.38
79250;BME280;68679;51.030;7.584;2024-01-07T05:38:52;98923.34;;;2.64;75.93
79250;BME280;68679;51.030;7.584;2024-01-07T05:41:18;98917.38;;;2.64;76.31
79250;BME280;68679;51.030;7.584;2024-01-07T05:43:43;98918.16;;;2.64;76.08
79250;BME280;68679;51.030;7.584;2024-01-07T05:46:08;98924.22;;;2.58;75.89
79250;BME280;68679;51.030;7.584;2024-01-07T05:48:47;98929.63;;;2.57;75.85
79250;BME280;68679;51.030;7.584;2024-01-07T05:51:13;98933.88;;;2.51;75.49
79250;BME280;68679;51.030;7.584;2024-01-07T05:53:40;98934.31;;;2.48;76.40
79250;BME280;68679;51.030;7.584;2024-01-07T05:56:06;98942.31;;;2.47;76.37
79250;BME280;68679;51.030;7.584;2024-01-07T05:58:31;98945.13;;;2.45;76.18
79250;BME280;68679;51.030;7.584;2024-01-07T06:00:57;98949.72;;;2.43;76.23
79250;BME280;68679;51.030;7.584;2024-01-07T06:03:22;98950.72;;;2.42;76.70
79250;BME280;68679;51.030;7.584;2024-01-07T06:05:48;98962.31;;;2.39;76.32
79250;BME280;68679;51.030;7.584;2024-01-07T06:08:13;98959.94;;;2.38;76.15
79250;BME280;68679;51.030;7.584;2024-01-07T06:10:39;98960.41;;;2.47;76.70
79250;BME280;68679;51.030;7.584;2024-01-07T06:13:04;98969.97;;;2.46;76.08
79250;BME280;68679;51.030;7.584;2024-01-07T06:15:30;98967.94;;;2.48;76.43
79250;BME280;68679;51.030;7.584;2024-01-07T06:17:55;98968.75;;;2.49;76.12
79250;BME280;68679;51.030;7.584;2024-01-07T06:20:21;98964.38;;;2.49;76.27
79250;BME280;68679;51.030;7.584;2024-01-07T06:22:46;98980.09;;;2.48;75.92
79250;BME280;68679;51.030;7.584;2024-01-07T06:25:11;98983.72;;;2.47;76.20
79250;BME280;68679;51.030;7.584;2024-01-07T06:27:38;98988.53;;;2.43;75.72
79250;BME280;68679;51.030;7.584;2024-01-07T06:30:04;98987.53;;;2.44;76.13
79250;BME280;68679;51.030;7.584;2024-01-07T06:32:30;98993.91;;;2.41;76.93
79250;BME280;68679;51.030;7.584;2024-01-07T06:34:57;98995.16;;;2.39;76.26
79250;BME280;68679;51.030;7.584;2024-01-07T06:37:23;98995.72;;;2.41;76.57
79250;BME280;68679;51.030;7.584;2024-01-07T06:39:48;98996.50;;;2.41;76.24
79250;BME280;68679;51.030;7.584;2024-01-07T06:42:13;99011.84;;;2.43;76.50
79250;BME280;68679;51.030;7.584;2024-01-07T06:44:38;99008.44;;;2.42;76.64
79250;BME280;68679;51.030;7.584;2024-01-07T06:47:04;99014.63;;;2.41;75.93
79250;BME280;68679;51.030;7.584;2024-01-07T06:49:29;99020.81;;;2.40;76.48
79250;BME280;68679;51.030;7.584;2024-01-07T06:51:54;99021.59;;;2.41;76.24
79250;BME280;68679;51.030;7.584;2024-01-07T06:54:19;99020.16;;;2.45;76.20
79250;BME280;68679;51.030;7.584;2024-01-07T06:56:44;99035.03;;;2.50;76.25
79250;BME280;68679;51.030;7.584;2024-01-07T06:59:10;99038.41;;;2.50;76.17
79250;BME280;68679;51.030;7.584;2024-01-07T07:01:36;99041.78;;;2.51;76.53
79250;BME280;68679;51.030;7.584;2024-01-07T07:04:01;99044.59;;;2.49;76.02
79250;BME280;68679;51.030;7.584;2024-01-07T07:06:26;99044.78;;;2.48;76.03
79250;BME280;68679;51.030;7.584;2024-01-07T07:08:51;99044.78;;;2.48;76.80
79250;BME280;68679;51.030;7.584;2024-01-07T07:11:17;99055.38;;;2.46;76.65
79250;BME280;68679;51.030;7.584;2024-01-07T07:13:42;99056.72;;;2.49;76.23
79250;BME280;68679;51.030;7.584;2024-01-07T07:16:07;99066.09;;;2.50;76.49
79250;BME280;68679;51.030;7.584;2024-01-07T07:18:33;99060.53;;;2.46;76.12
79250;BME280;68679;51.030;7.584;2024-01-07T07:20:58;99066.09;;;2.50;76.55
79250;BME280;68679;51.030;7.584;2024-01-07T07:23:23;99066.28;;;2.48;75.89
79250;BME280;68679;51.030;7.584;2024-01-07T07:25:48;99059.13;;;2.50;76.55
79250;BME280;68679;51.030;7.584;2024-01-07T07:28:14;99058.75;;;2.47;75.93
79250;BME280;68679;51.030;7.584;2024-01-07T07:30:39;99065.81;;;2.39;76.20
79250;BME280;68679;51.030;7.584;2024-01-07T07:33:04;99074.44;;;2.33;76.02
79250;BME280;68679;51.030;7.584;2024-01-07T07:35:30;99076.53;;;2.25;75.99
79250;BME280;68679;51.030;7.584;2024-01-07T07:37:55;99081.03;;;2.29;76.44
79250;BME280;68679;51.030;7.584;2024-01-07T07:40:20;99079.22;;;2.30;76.42
79250;BME280;68679;51.030;7.584;2024-01-07T07:42:46;99081.97;;;2.35;76.46
79250;BME280;68679;51.030;7.584;2024-01-07T07:45:11;99089.72;;;2.35;76.69
79250;BME280;68679;51.030;7.584;2024-01-07T07:47:36;99092.69;;;2.38;76.19
79250;BME280;68679;51.030;7.584;2024-01-07T07:50:02;99094.69;;;2.36;76.00
79250;BME280;68679;51.030;7.584;2024-01-07T07:52:28;99093.09;;;2.35;76.04
79250;BME280;68679;51.030;7.584;2024-01-07T07:54:54;99101.66;;;2.36;75.86
79250;BME280;68679;51.030;7.584;2024-01-07T07:57:20;99102.44;;;2.36;76.17
79250;BME280;68679;51.030;7.584;2024-01-07T07:59:50;99104.63;;;2.39;76.80
79250;BME280;68679;51.030;7.584;2024-01-07T08:02:15;99113.38;;;2.38;76.30
79250;BME280;68679;51.030;7.584;2024-01-07T08:04:40;99120.94;;;2.40;76.15
79250;BME280;68679;51.030;7.584;2024-01-07T08:07:08;99118.56;;;2.38;75.88
79250;BME280;68679;51.030;7.584;2024-01-07T08:09:33;99115.19;;;2.38;76.59
79250;BME280;68679;51.030;7.584;2024-01-07T08:12:02;99112.16;;;2.41;76.07
79250;BME280;68679;51.030;7.584;2024-01-07T08:14:27;99119.34;;;2.39;76.34
79250;BME280;68679;51.030;7.584;2024-01-07T08:16:54;99130.72;;;2.38;75.96
79250;BME280;68679;51.030;7.584;2024-01-07T08:19:19;99126.53;;;2.37;76.39
79250;BME280;68679;51.030;7.584;2024-01-07T08:21:45;99133.94;;;2.33;76.09
79250;BME280;68679;51.030;7.584;2024-01-07T08:24:10;99137.16;;;2.29;76.12
79250;BME280;68679;51.030;7.584;2024-01-07T08:26:36;99141.97;;;2.25;76.35
79250;BME280;68679;51.030;7.584;2024-01-07T08:29:01;99141.91;;;2.32;76.45
79250;BME280;68679;51.030;7.584;2024-01-07T08:31:27;99148.09;;;2.31;76.18
79250;BME280;68679;51.030;7.584;2024-01-07T08:33:52;99152.34;;;2.25;76.25
79250;BME280;68679;51.030;7.584;2024-01-07T08:36:17;99162.31;;;2.22;76.16
79250;BME280;68679;51.030;7.584;2024-01-07T08:38:43;99162.31;;;2.22;76.61
79250;BME280;68679;51.030;7.584;2024-01-07T08:41:08;99170.28;;;2.20;76.27
79250;BME280;68679;51.030;7.584;2024-01-07T08:43:34;99170.22;;;2.27;76.41
79250;BME280;68679;51.030;7.584;2024-01-07T08:45:59;99176.97;;;2.28;76.26
79250;BME280;68679;51.030;7.584;2024-01-07T08:48:25;99179.78;;;2.26;76.74
79250;BME280;68679;51.030;7.584;2024-01-07T08:50:51;99178.94;;;2.32;76.42
79250;BME280;68679;51.030;7.584;2024-01-07T08:53:17;99181.34;;;2.27;76.08
79250;BME280;68679;51.030;7.584;2024-01-07T08:55:44;99191.94;;;2.26;76.31
79250;BME280;68679;51.030;7.584;2024-01-07T08:58:09;99185.97;;;2.25;76.09
79250;BME280;68679;51.030;7.584;2024-01-07T09:00:35;99189.75;;;2.23;76.28
79250;BME280;68679;51.030;7.584;2024-01-07T09:03:00;99189.75;;;2.23;76.25
79250;BME280;68679;51.030;7.584;2024-01-07T09:05:28;99197.72;;;2.21;76.27
79250;BME280;68679;51.030;7.584;2024-01-07T09:07:53;99188.59;;;2.19;76.38
79250;BME280;68679;51.030;7.584;2024-01-07T09:10:19;99200.69;;;2.25;76.73
79250;BME280;68679;51.030;7.584;2024-01-07T09:12:45;99196.09;;;2.27;76.22
79250;BME280;68679;51.030;7.584;2024-01-07T09:15:11;99196.88;;;2.27;76.12
79250;BME280;68679;51.030;7.584;2024-01-07T09:17:37;99201.03;;;2.28;76.37
79250;BME280;68679;51.030;7.584;2024-01-07T09:20:07;99203.78;;;2.33;76.14
79250;BME280;68679;51.030;7.584;2024-01-07T09:22:33;99216.72;;;2.33;76.17
79250;BME280;68679;51.030;7.584;2024-01-07T09:24:59;99220.16;;;2.27;76.07
79250;BME280;68679;51.030;7.584;2024-01-07T09:27:25;99219.59;;;2.25;75.91
79250;BME280;68679;51.030;7.584;2024-01-07T09:29:50;99222.97;;;2.26;76.09
79250;BME280;68679;51.030;7.584;2024-01-07T09:32:18;99225.34;;;2.27;75.87
79250;BME280;68679;51.030;7.584;2024-01-07T09:34:43;99226.56;;;2.25;76.01
79250;BME280;68679;51.030;7.584;2024-01-07T09:37:09;99240.13;;;2.20;75.96
79250;BME280;68679;51.030;7.584;2024-01-07T09:39:38;99239.50;;;2.25;76.19
79250;BME280;68679;51.030;7.584;2024-01-07T09:42:04;99236.69;;;2.26;76.28
79250;BME280;68679;51.030;7.584;2024-01-07T09:44:30;99241.06;;;2.26;76.23
79250;BME280;68679;51.030;7.584;2024-01-07T09:46:58;99240.47;;;2.24;76.23
79250;BME280;68679;51.030;7.584;2024-01-07T09:49:23;99245.47;;;2.25;75.76
79250;BME280;68679;51.030;7.584;2024-01-07T09:51:51;99252.56;;;2.30;76.66
79250;BME280;68679;51.030;7.584;2024-01-07T09:54:24;99240.63;;;2.29;76.09
79250;BME280;68679;51.030;7.584;2024-01-07T09:57:04;99251.03;;;2.22;75.72
79250;BME280;68679;51.030;7.584;2024-01-07T09:59:36;99250.81;;;2.24;76.12
79250;BME280;68679;51.030;7.584;2024-01-07T10:02:07;99246.31;;;2.19;75.74
79250;BME280;68679;51.030;7.584;2024-01-07T10:04:33;99245.91;;;2.15;75.74
79250;BME280;68679;51.030;7.584;2024-01-07T10:06:58;99248.94;;;2.12;75.47
79250;BME280;68679;51.030;7.584;2024-01-07T10:09:33;99250.53;;;2.13;75.74
79250;BME280;68679;51.030;7.584;2024-01-07T10:11:59;99264.06;;;2.09;75.41
79250;BME280;68679;51.030;7.584;2024-01-07T10:14:25;99263.06;;;2.10;75.51
79250;BME280;68679;51.030;7.584;2024-01-07T10:16:52;99263.34;;;2.02;75.49
79250;BME280;68679;51.030;7.584;2024-01-07T10:19:21;99261.50;;;2.09;75.74
79250;BME280;68679;51.030;7.584;2024-01-07T10:21:58;99260.25;;;2.11;75.98
79250;BME280;68679;51.030;7.584;2024-01-07T10:24:24;99261.50;;;2.09;75.42
79250;BME280;68679;51.030;7.584;2024-01-07T10:26:50;99263.69;;;2.05;75.14
79250;BME280;68679;51.030;7.584;2024-01-07T10:29:15;99265.47;;;2.05;75.73
79250;BME280;68679;51.030;7.584;2024-01-07T10:31:41;99268.25;;;2.10;76.08
79250;BME280;68679;51.030;7.584;2024-01-07T10:34:08;99259.53;;;2.04;75.33
79250;BME280;68679;51.030;7.584;2024-01-07T10:36:34;99273.47;;;2.03;75.69
79250;BME280;68679;51.030;7.584;2024-01-07T10:39:00;99268.88;;;2.05;75.85
79250;BME280;68679;51.030;7.584;2024-01-07T10:41:26;99269.88;;;2.04;75.03
79250;BME280;68679;51.030;7.584;2024-01-07T10:43:52;99269.50;;;2.01;75.45
79250;BME280;68679;51.030;7.584;2024-01-07T10:46:17;99267.91;;;2.00;74.82
79250;BME280;68679;51.030;7.584;2024-01-07T10:48:54;99267.53;;;1.96;75.35
79250;BME280;68679;51.030;7.584;2024-01-07T10:51:20;99271.88;;;2.02;75.70
79250;BME280;68679;51.030;7.584;2024-01-07T10:53:51;99272.88;;;2.01;75.35
79250;BME280;68679;51.030;7.584;2024-01-07T10:56:22;99267.28;;;2.04;75.21
79250;BME280;68679;51.030;7.584;2024-01-07T10:58:49;99274.81;;;2.06;75.56
79250;BME280;68679;51.030;7.584;2024-01-07T11:01:16;99276.84;;;2.04;75.61
79250;BME280;68679;51.030;7.584;2024-01-07T11:03:47;99277.41;;;2.12;75.79
79250;BME280;68679;51.030;7.584;2024-01-07T11:08:55;99282.91;;;2.16;75.28
79250;BME280;68679;51.030;7.584;2024-01-07T11:11:30;99281.97;;;2.10;74.77
79250;BME280;68679;51.030;7.584;2024-01-07T11:13:59;99291.34;;;2.05;75.02
79250;BME280;68679;51.030;7.584;2024-01-07T11:19:05;99294.38;;;2.02;75.28
79250;BME280;68679;51.030;7.584;2024-01-07T11:21:30;99298.09;;;2.06;75.35
79250;BME280;68679;51.030;7.584;2024-01-07T11:23:55;99297.97;;;2.01;74.55
79250;BME280;68679;51.030;7.584;2024-01-07T11:26:21;99297.56;;;1.97;74.92
79250;BME280;68679;51.030;7.584;2024-01-07T11:28:54;99302.34;;;2.00;75.26
79250;BME280;68679;51.030;7.584;2024-01-07T11:34:07;99312.28;;;1.97;75.00
79250;BME280;68679;51.030;7.584;2024-01-07T11:36:35;99307.38;;;1.88;74.55
79250;BME280;68679;51.030;7.584;2024-01-07T11:39:01;99310.31;;;1.92;74.73
79250;BME280;68679;51.030;7.584;2024-01-07T11:41:29;99313.09;;;1.97;75.12
79250;BME280;68679;51.030;7.584;2024-01-07T11:43:58;99310.88;;;2.01;75.36
79250;BME280;68679;51.030;7.584;2024-01-07T11:46:29;99311.25;;;2.04;74.72
79250;BME280;68679;51.030;7.584;2024-01-07T11:48:58;99312.28;;;1.97;74.74
79250;BME280;68679;51.030;7.584;2024-01-07T11:51:25;99316.25;;;1.99;74.91
79250;BME280;68679;51.030;7.584;2024-01-07T11:53:51;99315.66;;;1.97;74.43
79250;BME280;68679;51.030;7.584;2024-01-07T11:56:17;99321.63;;;1.98;74.87
79250;BME280;68679;51.030;7.584;2024-01-07T11:58:43;99325.63;;;1.94;74.70
79250;BME280;68679;51.030;7.584;2024-01-07T12:01:08;99327.25;;;1.88;74.07
79250;BME280;68679;51.030;7.584;2024-01-07T12:03:33;99325.28;;;1.83;74.41
79250;BME280;68679;51.030;7.584;2024-01-07T12:05:59;99320.31;;;1.88;74.88
79250;BME280;68679;51.030;7.584;2024-01-07T12:08:24;99317.69;;;1.95;74.70
79250;BME280;68679;51.030;7.584;2024-01-07T12:10:50;99321.84;;;1.96;74.79
79250;BME280;68679;51.030;7.584;2024-01-07T12:13:15;99322.41;;;1.98;74.47
79250;BME280;68679;51.030;7.584;2024-01-07T12:15:42;99329.00;;;1.94;74.00
79250;BME280;68679;51.030;7.584;2024-01-07T12:18:09;99331.00;;;1.92;74.30
79250;BME280;68679;51.030;7.584;2024-01-07T12:20:34;99333.84;;;1.84;74.15
79250;BME280;68679;51.030;7.584;2024-01-07T12:23:09;99327.88;;;1.83;73.84
79250;BME280;68679;51.030;7.584;2024-01-07T12:25:35;99332.28;;;1.76;73.79
79250;BME280;68679;51.030;7.584;2024-01-07T12:28:01;99335.69;;;1.70;73.75
79250;BME280;68679;51.030;7.584;2024-01-07T12:30:27;99334.47;;;1.73;74.10
79250;BME280;68679;51.030;7.584;2024-01-07T12:32:53;99344.78;;;1.79;74.73
79250;BME280;68679;51.030;7.584;2024-01-07T12:35:18;99339.88;;;1.71;74.01
79250;BME280;68679;51.030;7.584;2024-01-07T12:37:44;99341.25;;;1.74;74.15
79250;BME280;68679;51.030;7.584;2024-01-07T12:40:10;99336.50;;;1.71;73.79
79250;BME280;68679;51.030;7.584;2024-01-07T12:42:39;99335.34;;;1.60;73.75
79250;BME280;68679;51.030;7.584;2024-01-07T12:45:13;99342.28;;;1.59;73.43
79250;BME280;68679;51.030;7.584;2024-01-07T12:47:42;99333.75;;;1.59;73.87
79250;BME280;68679;51.030;7.584;2024-01-07T12:50:08;99339.31;;;1.56;72.63
79250;BME280;68679;51.030;7.584;2024-01-07T12:52:36;99346.88;;;1.51;72.69
79250;BME280;68679;51.030;7.584;2024-01-07T12:55:02;99344.28;;;1.57;74.20
79250;BME280;68679;51.030;7.584;2024-01-07T12:57:27;99347.66;;;1.51;71.78
79250;BME280;68679;51.030;7.584;2024-01-07T12:59:54;99348.91;;;1.42;72.73
79250;BME280;68679;51.030;7.584;2024-01-07T13:02:19;99348.91;;;1.42;72.92
79250;BME280;68679;51.030;7.584;2024-01-07T13:04:45;99349.31;;;1.39;72.43
79250;BME280;68679;51.030;7.584;2024-01-07T13:07:10;99353.69;;;1.39;72.24
79250;BME280;68679;51.030;7.584;2024-01-07T13:09:35;99352.13;;;1.31;72.05
79250;BME280;68679;51.030;7.584;2024-01-07T13:12:00;99364.63;;;1.27;72.01